03VA weather

CLOSED Whipoorwill Springs Airport
Nokesville, Virginia, United States

Public forecast

Using degrees Fahrenheit for public forecast. Weather courtesy of forecast.io.

Closest aviation weather report (METAR) to Whipoorwill Springs Airport

Closest report is Manassas Regional Airport/Harry P. Davis Field, 4.6 nm (8.4 km) NE. Retrieved 2019/10/20 04:56 UTC (24 minutes ago):

KHEF 200456Z AUTO 00000KT 10SM CLR 10/08 A3000 RMK AO2 SLP163 T01000083

Closest aviation forecast (TAF) to Whipoorwill Springs Airport

Forecast is more than 12 hours old.

Closest forecast is Quantico MCAF /Turner field, 16.2 nm (29.9 km) SE. Retrieved 2016/02/08 15:59 UTC (4 years ago):

TAF COR KNYG 081500Z 0815/0915 VRB06KT 9999 FEW080 SCT180 620209 621105 540009 540909 QNH2970INS BECMG 0822/0823 VRB06KT 9000 -RA FEW030 SCT080 BKN120 620209 621105 540009 540909 QNH2952INS BECMG 0905/0907 VRB06KT 8000 RASN 600000 500000 BKN020 OVC030 500000 QNH2947INS T07/0820Z T00/0911Z COR 1553